< < Back
Terminal Aerodrome Forecast


Current Version              Previous Versions:   1  2  3  4  5  6  7  8  9  

Terminal Aerodrome Forecast

977
FTUS44 KBMX 241737
TAFANB
TAF
KANB 241737Z 2418/2518 17006KT P6SM VCTS SCT050CB
     FM250000 VRB02KT P6SM SCT250=

Latest METAR

174
SAUS70 KWBC 242200 RRA
MTRANB
METAR KANB 242153Z AUTO 22004KT 10SM BKN060 34/19 A2998 RMK AO2 SLP141
T03390194


USA.gov is the U.S. government's official web portal to all federal, state and local government web resources and services.